sensor_id;sensor_type;location;lat;lon;timestamp;P1;durP1;ratioP1;P2;durP2;ratioP2
27802;SDS011;15182;48.174;11.562;2023-05-07T00:01:44;6.40;;;4.05;;
27802;SDS011;15182;48.174;11.562;2023-05-07T00:04:12;5.40;;;5.00;;
27802;SDS011;15182;48.174;11.562;2023-05-07T00:06:40;5.10;;;4.80;;
27802;SDS011;15182;48.174;11.562;2023-05-07T00:09:08;10.13;;;5.18;;
27802;SDS011;15182;48.174;11.562;2023-05-07T00:11:36;6.13;;;5.63;;
27802;SDS011;15182;48.174;11.562;2023-05-07T00:14:06;5.72;;;5.38;;
27802;SDS011;15182;48.174;11.562;2023-05-07T00:16:34;5.55;;;5.07;;
27802;SDS011;15182;48.174;11.562;2023-05-07T00:19:02;5.40;;;4.95;;
27802;SDS011;15182;48.174;11.562;2023-05-07T00:21:30;5.97;;;5.57;;
27802;SDS011;15182;48.174;11.562;2023-05-07T00:23:58;8.45;;;6.00;;
27802;SDS011;15182;48.174;11.562;2023-05-07T00:26:25;6.13;;;5.65;;
27802;SDS011;15182;48.174;11.562;2023-05-07T00:28:54;6.70;;;6.13;;
27802;SDS011;15182;48.174;11.562;2023-05-07T00:31:25;6.45;;;5.85;;
27802;SDS011;15182;48.174;11.562;2023-05-07T00:33:53;6.80;;;6.20;;
27802;SDS011;15182;48.174;11.562;2023-05-07T00:36:20;8.73;;;6.60;;
27802;SDS011;15182;48.174;11.562;2023-05-07T00:38:48;8.40;;;6.18;;
27802;SDS011;15182;48.174;11.562;2023-05-07T00:41:16;7.38;;;6.72;;
27802;SDS011;15182;48.174;11.562;2023-05-07T00:43:44;7.55;;;6.70;;
27802;SDS011;15182;48.174;11.562;2023-05-07T00:46:12;6.68;;;6.05;;
27802;SDS011;15182;48.174;11.562;2023-05-07T00:48:46;7.47;;;6.78;;
27802;SDS011;15182;48.174;11.562;2023-05-07T00:51:15;7.57;;;5.80;;
27802;SDS011;15182;48.174;11.562;2023-05-07T00:53:43;6.28;;;5.78;;
27802;SDS011;15182;48.174;11.562;2023-05-07T00:56:11;5.75;;;5.35;;
27802;SDS011;15182;48.174;11.562;2023-05-07T00:58:40;6.32;;;5.82;;
27802;SDS011;15182;48.174;11.562;2023-05-07T01:01:08;6.63;;;6.10;;
27802;SDS011;15182;48.174;11.562;2023-05-07T01:03:36;5.90;;;5.50;;
27802;SDS011;15182;48.174;11.562;2023-05-07T01:06:07;6.50;;;5.50;;
27802;SDS011;15182;48.174;11.562;2023-05-07T01:08:38;7.35;;;6.35;;
27802;SDS011;15182;48.174;11.562;2023-05-07T01:11:06;6.30;;;5.82;;
27802;SDS011;15182;48.174;11.562;2023-05-07T01:13:35;6.43;;;5.63;;
27802;SDS011;15182;48.174;11.562;2023-05-07T01:16:06;5.93;;;5.47;;
27802;SDS011;15182;48.174;11.562;2023-05-07T01:18:35;6.15;;;5.53;;
27802;SDS011;15182;48.174;11.562;2023-05-07T01:21:04;5.82;;;5.32;;
27802;SDS011;15182;48.174;11.562;2023-05-07T01:23:36;6.00;;;5.43;;
27802;SDS011;15182;48.174;11.562;2023-05-07T01:26:05;5.43;;;5.00;;
27802;SDS011;15182;48.174;11.562;2023-05-07T01:28:34;5.68;;;5.22;;
27802;SDS011;15182;48.174;11.562;2023-05-07T01:31:02;5.70;;;5.18;;
27802;SDS011;15182;48.174;11.562;2023-05-07T01:33:34;5.85;;;5.35;;
27802;SDS011;15182;48.174;11.562;2023-05-07T01:36:03;5.25;;;4.95;;
27802;SDS011;15182;48.174;11.562;2023-05-07T01:38:34;4.93;;;4.72;;
27802;SDS011;15182;48.174;11.562;2023-05-07T01:41:06;5.47;;;5.07;;
27802;SDS011;15182;48.174;11.562;2023-05-07T01:43:34;4.80;;;4.50;;
27802;SDS011;15182;48.174;11.562;2023-05-07T01:46:02;6.28;;;4.93;;
27802;SDS011;15182;48.174;11.562;2023-05-07T01:48:30;5.18;;;4.95;;
27802;SDS011;15182;48.174;11.562;2023-05-07T01:50:59;5.15;;;4.82;;
27802;SDS011;15182;48.174;11.562;2023-05-07T01:53:28;5.18;;;4.88;;
27802;SDS011;15182;48.174;11.562;2023-05-07T01:56:04;4.50;;;4.40;;
27802;SDS011;15182;48.174;11.562;2023-05-07T01:58:35;4.78;;;4.57;;
27802;SDS011;15182;48.174;11.562;2023-05-07T02:01:04;5.10;;;4.65;;
27802;SDS011;15182;48.174;11.562;2023-05-07T02:03:32;6.70;;;4.78;;
27802;SDS011;15182;48.174;11.562;2023-05-07T02:06:07;5.35;;;5.00;;
27802;SDS011;15182;48.174;11.562;2023-05-07T02:08:40;4.72;;;4.50;;
27802;SDS011;15182;48.174;11.562;2023-05-07T02:11:09;4.38;;;4.18;;
27802;SDS011;15182;48.174;11.562;2023-05-07T02:13:37;4.78;;;4.57;;
27802;SDS011;15182;48.174;11.562;2023-05-07T02:16:05;5.18;;;4.70;;
27802;SDS011;15182;48.174;11.562;2023-05-07T02:18:33;4.57;;;4.38;;
27802;SDS011;15182;48.174;11.562;2023-05-07T02:21:01;4.25;;;3.90;;
27802;SDS011;15182;48.174;11.562;2023-05-07T02:23:30;5.15;;;4.88;;
27802;SDS011;15182;48.174;11.562;2023-05-07T02:26:00;4.35;;;4.25;;
27802;SDS011;15182;48.174;11.562;2023-05-07T02:28:28;4.43;;;4.22;;
27802;SDS011;15182;48.174;11.562;2023-05-07T02:31:02;4.70;;;4.47;;
27802;SDS011;15182;48.174;11.562;2023-05-07T02:33:30;4.85;;;4.65;;
27802;SDS011;15182;48.174;11.562;2023-05-07T02:36:05;4.70;;;4.50;;
27802;SDS011;15182;48.174;11.562;2023-05-07T02:38:35;4.60;;;4.40;;
27802;SDS011;15182;48.174;11.562;2023-05-07T02:41:06;4.57;;;4.38;;
27802;SDS011;15182;48.174;11.562;2023-05-07T02:43:35;4.50;;;4.18;;
27802;SDS011;15182;48.174;11.562;2023-05-07T02:46:03;5.93;;;4.07;;
27802;SDS011;15182;48.174;11.562;2023-05-07T02:48:34;4.75;;;4.45;;
27802;SDS011;15182;48.174;11.562;2023-05-07T02:51:02;5.05;;;4.65;;
27802;SDS011;15182;48.174;11.562;2023-05-07T02:53:32;5.32;;;4.97;;
27802;SDS011;15182;48.174;11.562;2023-05-07T02:56:00;4.65;;;4.35;;
27802;SDS011;15182;48.174;11.562;2023-05-07T02:58:31;4.97;;;4.60;;
27802;SDS011;15182;48.174;11.562;2023-05-07T03:01:01;4.53;;;4.40;;
27802;SDS011;15182;48.174;11.562;2023-05-07T03:03:34;5.18;;;4.88;;
27802;SDS011;15182;48.174;11.562;2023-05-07T03:06:02;5.00;;;4.60;;
27802;SDS011;15182;48.174;11.562;2023-05-07T03:08:31;4.00;;;3.90;;
27802;SDS011;15182;48.174;11.562;2023-05-07T03:10:58;4.03;;;3.90;;
27802;SDS011;15182;48.174;11.562;2023-05-07T03:13:26;4.95;;;4.50;;
27802;SDS011;15182;48.174;11.562;2023-05-07T03:15:56;4.25;;;4.05;;
27802;SDS011;15182;48.174;11.562;2023-05-07T03:18:24;4.30;;;4.10;;
27802;SDS011;15182;48.174;11.562;2023-05-07T03:20:53;4.78;;;4.50;;
27802;SDS011;15182;48.174;11.562;2023-05-07T03:23:21;4.32;;;4.10;;
27802;SDS011;15182;48.174;11.562;2023-05-07T03:25:48;5.63;;;4.25;;
27802;SDS011;15182;48.174;11.562;2023-05-07T03:28:17;4.32;;;4.13;;
27802;SDS011;15182;48.174;11.562;2023-05-07T03:30:51;4.65;;;4.47;;
27802;SDS011;15182;48.174;11.562;2023-05-07T03:33:21;4.55;;;4.35;;
27802;SDS011;15182;48.174;11.562;2023-05-07T03:35:49;4.55;;;4.25;;
27802;SDS011;15182;48.174;11.562;2023-05-07T03:38:21;4.43;;;4.13;;
27802;SDS011;15182;48.174;11.562;2023-05-07T03:40:50;4.43;;;4.18;;
27802;SDS011;15182;48.174;11.562;2023-05-07T03:43:18;4.70;;;4.43;;
27802;SDS011;15182;48.174;11.562;2023-05-07T03:45:51;4.32;;;4.22;;
27802;SDS011;15182;48.174;11.562;2023-05-07T03:48:25;4.28;;;4.10;;
27802;SDS011;15182;48.174;11.562;2023-05-07T03:50:56;4.10;;;4.00;;
27802;SDS011;15182;48.174;11.562;2023-05-07T03:53:28;4.10;;;4.00;;
27802;SDS011;15182;48.174;11.562;2023-05-07T03:55:56;4.63;;;4.32;;
27802;SDS011;15182;48.174;11.562;2023-05-07T03:58:24;4.10;;;3.90;;
27802;SDS011;15182;48.174;11.562;2023-05-07T04:00:53;4.32;;;4.13;;
27802;SDS011;15182;48.174;11.562;2023-05-07T04:03:27;3.88;;;3.53;;
27802;SDS011;15182;48.174;11.562;2023-05-07T04:05:58;4.43;;;4.07;;
27802;SDS011;15182;48.174;11.562;2023-05-07T04:08:26;3.70;;;3.60;;
27802;SDS011;15182;48.174;11.562;2023-05-07T04:10:54;4.35;;;4.05;;
27802;SDS011;15182;48.174;11.562;2023-05-07T04:13:24;4.50;;;4.35;;
27802;SDS011;15182;48.174;11.562;2023-05-07T04:15:55;5.22;;;4.32;;
27802;SDS011;15182;48.174;11.562;2023-05-07T04:18:24;4.53;;;4.30;;
27802;SDS011;15182;48.174;11.562;2023-05-07T04:20:54;4.05;;;3.95;;
27802;SDS011;15182;48.174;11.562;2023-05-07T04:23:22;4.88;;;4.47;;
27802;SDS011;15182;48.174;11.562;2023-05-07T04:25:50;4.53;;;4.22;;
27802;SDS011;15182;48.174;11.562;2023-05-07T04:28:33;4.45;;;4.20;;
27802;SDS011;15182;48.174;11.562;2023-05-07T04:31:01;4.53;;;4.30;;
27802;SDS011;15182;48.174;11.562;2023-05-07T04:33:31;4.93;;;3.88;;
27802;SDS011;15182;48.174;11.562;2023-05-07T04:36:03;4.25;;;4.05;;
27802;SDS011;15182;48.174;11.562;2023-05-07T04:38:37;4.38;;;4.18;;
27802;SDS011;15182;48.174;11.562;2023-05-07T04:41:06;4.18;;;3.97;;
27802;SDS011;15182;48.174;11.562;2023-05-07T04:43:39;4.50;;;4.20;;
27802;SDS011;15182;48.174;11.562;2023-05-07T04:46:07;4.32;;;4.10;;
27802;SDS011;15182;48.174;11.562;2023-05-07T04:48:35;3.90;;;3.80;;
27802;SDS011;15182;48.174;11.562;2023-05-07T04:51:07;4.22;;;4.13;;
27802;SDS011;15182;48.174;11.562;2023-05-07T04:53:34;4.05;;;3.92;;
27802;SDS011;15182;48.174;11.562;2023-05-07T04:56:04;4.05;;;3.85;;
27802;SDS011;15182;48.174;11.562;2023-05-07T04:58:38;9.10;;;4.55;;
27802;SDS011;15182;48.174;11.562;2023-05-07T05:01:07;4.47;;;4.32;;
27802;SDS011;15182;48.174;11.562;2023-05-07T05:03:34;4.40;;;4.30;;
27802;SDS011;15182;48.174;11.562;2023-05-07T05:06:02;4.22;;;3.92;;
27802;SDS011;15182;48.174;11.562;2023-05-07T05:08:37;4.07;;;3.88;;
27802;SDS011;15182;48.174;11.562;2023-05-07T05:11:05;3.65;;;3.55;;
27802;SDS011;15182;48.174;11.562;2023-05-07T05:13:35;4.13;;;3.83;;
27802;SDS011;15182;48.174;11.562;2023-05-07T05:16:10;4.28;;;4.07;;
27802;SDS011;15182;48.174;11.562;2023-05-07T05:18:39;4.50;;;4.38;;
27802;SDS011;15182;48.174;11.562;2023-05-07T05:21:08;4.05;;;3.95;;
27802;SDS011;15182;48.174;11.562;2023-05-07T05:23:38;4.38;;;4.07;;
27802;SDS011;15182;48.174;11.562;2023-05-07T05:26:07;5.03;;;4.57;;
27802;SDS011;15182;48.174;11.562;2023-05-07T05:28:35;4.32;;;4.13;;
27802;SDS011;15182;48.174;11.562;2023-05-07T05:31:04;4.60;;;4.40;;
27802;SDS011;15182;48.174;11.562;2023-05-07T05:33:35;4.85;;;4.63;;
27802;SDS011;15182;48.174;11.562;2023-05-07T05:36:05;4.18;;;3.95;;
27802;SDS011;15182;48.174;11.562;2023-05-07T05:38:33;3.70;;;3.60;;
27802;SDS011;15182;48.174;11.562;2023-05-07T05:41:03;4.17;;;3.97;;
27802;SDS011;15182;48.174;11.562;2023-05-07T05:43:31;3.60;;;3.45;;
27802;SDS011;15182;48.174;11.562;2023-05-07T05:45:59;4.03;;;3.83;;
27802;SDS011;15182;48.174;11.562;2023-05-07T05:48:29;3.30;;;3.20;;
27802;SDS011;15182;48.174;11.562;2023-05-07T05:51:00;3.47;;;3.38;;
27802;SDS011;15182;48.174;11.562;2023-05-07T05:53:30;4.03;;;3.90;;
27802;SDS011;15182;48.174;11.562;2023-05-07T05:56:00;3.72;;;3.42;;
27802;SDS011;15182;48.174;11.562;2023-05-07T05:58:33;3.88;;;3.70;;
27802;SDS011;15182;48.174;11.562;2023-05-07T06:01:04;3.28;;;3.17;;
27802;SDS011;15182;48.174;11.562;2023-05-07T06:03:35;3.42;;;3.33;;
27802;SDS011;15182;48.174;11.562;2023-05-07T06:06:08;3.85;;;3.65;;
27802;SDS011;15182;48.174;11.562;2023-05-07T06:08:36;3.63;;;3.53;;
27802;SDS011;15182;48.174;11.562;2023-05-07T06:11:04;3.70;;;3.55;;
27802;SDS011;15182;48.174;11.562;2023-05-07T06:13:38;3.60;;;3.40;;
27802;SDS011;15182;48.174;11.562;2023-05-07T06:16:06;3.92;;;3.75;;
27802;SDS011;15182;48.174;11.562;2023-05-07T06:18:34;3.95;;;3.83;;
27802;SDS011;15182;48.174;11.562;2023-05-07T06:21:03;4.03;;;3.83;;
27802;SDS011;15182;48.174;11.562;2023-05-07T06:23:33;3.70;;;3.65;;
27802;SDS011;15182;48.174;11.562;2023-05-07T06:26:02;3.55;;;3.35;;
27802;SDS011;15182;48.174;11.562;2023-05-07T06:28:39;4.10;;;3.70;;
27802;SDS011;15182;48.174;11.562;2023-05-07T06:31:10;3.13;;;2.97;;
27802;SDS011;15182;48.174;11.562;2023-05-07T06:33:40;2.90;;;2.80;;
27802;SDS011;15182;48.174;11.562;2023-05-07T06:36:08;2.78;;;2.78;;
27802;SDS011;15182;48.174;11.562;2023-05-07T06:38:38;3.42;;;3.33;;
27802;SDS011;15182;48.174;11.562;2023-05-07T06:41:06;2.85;;;2.85;;
27802;SDS011;15182;48.174;11.562;2023-05-07T06:43:34;2.95;;;2.85;;
27802;SDS011;15182;48.174;11.562;2023-05-07T06:46:33;2.55;;;2.35;;
27802;SDS011;15182;48.174;11.562;2023-05-07T06:49:03;3.22;;;3.13;;
27802;SDS011;15182;48.174;11.562;2023-05-07T06:51:31;3.15;;;2.95;;
27802;SDS011;15182;48.174;11.562;2023-05-07T06:54:02;2.55;;;2.45;;
27802;SDS011;15182;48.174;11.562;2023-05-07T06:56:33;2.75;;;2.75;;
27802;SDS011;15182;48.174;11.562;2023-05-07T06:59:02;2.65;;;2.60;;
27802;SDS011;15182;48.174;11.562;2023-05-07T07:01:36;3.00;;;2.83;;
27802;SDS011;15182;48.174;11.562;2023-05-07T07:04:05;3.03;;;2.78;;
27802;SDS011;15182;48.174;11.562;2023-05-07T07:06:36;2.50;;;2.50;;
27802;SDS011;15182;48.174;11.562;2023-05-07T07:09:08;2.50;;;2.50;;
27802;SDS011;15182;48.174;11.562;2023-05-07T07:11:38;2.88;;;2.88;;
27802;SDS011;15182;48.174;11.562;2023-05-07T07:14:06;2.90;;;2.80;;
27802;SDS011;15182;48.174;11.562;2023-05-07T07:16:47;2.83;;;2.75;;
27802;SDS011;15182;48.174;11.562;2023-05-07T07:19:17;3.20;;;2.90;;
27802;SDS011;15182;48.174;11.562;2023-05-07T07:21:47;2.45;;;2.40;;
27802;SDS011;15182;48.174;11.562;2023-05-07T07:24:16;4.43;;;2.70;;
27802;SDS011;15182;48.174;11.562;2023-05-07T07:26:48;2.72;;;2.63;;
27802;SDS011;15182;48.174;11.562;2023-05-07T07:29:17;2.90;;;2.90;;
27802;SDS011;15182;48.174;11.562;2023-05-07T07:31:49;2.63;;;2.53;;
27802;SDS011;15182;48.174;11.562;2023-05-07T07:34:18;3.08;;;2.88;;
27802;SDS011;15182;48.174;11.562;2023-05-07T07:36:48;5.85;;;2.78;;
27802;SDS011;15182;48.174;11.562;2023-05-07T07:39:17;3.05;;;3.03;;
27802;SDS011;15182;48.174;11.562;2023-05-07T07:41:48;2.70;;;2.55;;
27802;SDS011;15182;48.174;11.562;2023-05-07T07:44:18;3.17;;;2.72;;
27802;SDS011;15182;48.174;11.562;2023-05-07T07:46:52;2.80;;;2.70;;
27802;SDS011;15182;48.174;11.562;2023-05-07T07:49:22;2.75;;;2.65;;
27802;SDS011;15182;48.174;11.562;2023-05-07T07:51:50;3.00;;;2.90;;
27802;SDS011;15182;48.174;11.562;2023-05-07T07:54:18;3.33;;;2.90;;
27802;SDS011;15182;48.174;11.562;2023-05-07T07:56:46;3.17;;;3.10;;
27802;SDS011;15182;48.174;11.562;2023-05-07T07:59:18;3.03;;;2.92;;
27802;SDS011;15182;48.174;11.562;2023-05-07T08:01:48;2.80;;;2.70;;
27802;SDS011;15182;48.174;11.562;2023-05-07T08:04:23;3.13;;;3.03;;
27802;SDS011;15182;48.174;11.562;2023-05-07T08:06:54;3.22;;;3.13;;
27802;SDS011;15182;48.174;11.562;2023-05-07T08:09:22;3.08;;;2.88;;
27802;SDS011;15182;48.174;11.562;2023-05-07T08:11:57;2.55;;;2.45;;
27802;SDS011;15182;48.174;11.562;2023-05-07T08:14:25;3.05;;;2.63;;
27802;SDS011;15182;48.174;11.562;2023-05-07T08:16:54;2.63;;;2.63;;
27802;SDS011;15182;48.174;11.562;2023-05-07T08:19:26;2.63;;;2.58;;
27802;SDS011;15182;48.174;11.562;2023-05-07T08:21:54;2.70;;;2.50;;
27802;SDS011;15182;48.174;11.562;2023-05-07T08:24:24;2.80;;;2.47;;
27802;SDS011;15182;48.174;11.562;2023-05-07T08:26:52;2.40;;;2.38;;
27802;SDS011;15182;48.174;11.562;2023-05-07T08:29:23;2.60;;;2.50;;
27802;SDS011;15182;48.174;11.562;2023-05-07T08:31:52;2.45;;;2.35;;
27802;SDS011;15182;48.174;11.562;2023-05-07T08:34:21;2.85;;;2.65;;
27802;SDS011;15182;48.174;11.562;2023-05-07T08:36:52;6.57;;;2.55;;
27802;SDS011;15182;48.174;11.562;2023-05-07T08:39:24;2.72;;;2.67;;
27802;SDS011;15182;48.174;11.562;2023-05-07T08:41:55;2.75;;;2.65;;
27802;SDS011;15182;48.174;11.562;2023-05-07T08:44:25;2.92;;;2.83;;
27802;SDS011;15182;48.174;11.562;2023-05-07T08:46:56;2.63;;;2.53;;
27802;SDS011;15182;48.174;11.562;2023-05-07T08:49:29;3.08;;;2.97;;
27802;SDS011;15182;48.174;11.562;2023-05-07T08:51:57;3.20;;;3.00;;
27802;SDS011;15182;48.174;11.562;2023-05-07T08:54:26;3.03;;;2.83;;
27802;SDS011;15182;48.174;11.562;2023-05-07T08:56:56;2.97;;;2.88;;
27802;SDS011;15182;48.174;11.562;2023-05-07T08:59:24;3.15;;;3.05;;
27802;SDS011;15182;48.174;11.562;2023-05-07T09:02:00;7.72;;;3.22;;
27802;SDS011;15182;48.174;11.562;2023-05-07T09:04:33;3.03;;;2.92;;
27802;SDS011;15182;48.174;11.562;2023-05-07T09:07:02;3.28;;;3.08;;
27802;SDS011;15182;48.174;11.562;2023-05-07T09:09:32;3.42;;;3.22;;
27802;SDS011;15182;48.174;11.562;2023-05-07T09:12:02;3.05;;;2.95;;
27802;SDS011;15182;48.174;11.562;2023-05-07T09:14:33;2.95;;;2.95;;
27802;SDS011;15182;48.174;11.562;2023-05-07T09:17:02;2.67;;;2.47;;
27802;SDS011;15182;48.174;11.562;2023-05-07T09:19:41;2.58;;;2.58;;
27802;SDS011;15182;48.174;11.562;2023-05-07T09:22:11;2.92;;;2.83;;
27802;SDS011;15182;48.174;11.562;2023-05-07T09:24:52;2.75;;;2.75;;
27802;SDS011;15182;48.174;11.562;2023-05-07T09:27:25;2.92;;;2.83;;
27802;SDS011;15182;48.174;11.562;2023-05-07T09:29:55;3.08;;;2.95;;
27802;SDS011;15182;48.174;11.562;2023-05-07T09:32:24;2.63;;;2.63;;
27802;SDS011;15182;48.174;11.562;2023-05-07T09:34:55;2.55;;;2.55;;
27802;SDS011;15182;48.174;11.562;2023-05-07T09:37:25;2.92;;;2.88;;
27802;SDS011;15182;48.174;11.562;2023-05-07T09:39:55;2.60;;;2.50;;
27802;SDS011;15182;48.174;11.562;2023-05-07T09:42:24;2.90;;;2.72;;
27802;SDS011;15182;48.174;11.562;2023-05-07T09:44:56;3.67;;;3.55;;
27802;SDS011;15182;48.174;11.562;2023-05-07T09:47:28;2.42;;;2.42;;
27802;SDS011;15182;48.174;11.562;2023-05-07T09:50:02;2.47;;;2.47;;
27802;SDS011;15182;48.174;11.562;2023-05-07T09:52:36;2.35;;;2.35;;
27802;SDS011;15182;48.174;11.562;2023-05-07T09:55:10;2.25;;;2.15;;
27802;SDS011;15182;48.174;11.562;2023-05-07T09:57:41;2.42;;;2.25;;
27802;SDS011;15182;48.174;11.562;2023-05-07T10:00:11;2.10;;;1.92;;
27802;SDS011;15182;48.174;11.562;2023-05-07T10:02:48;2.30;;;2.20;;
27802;SDS011;15182;48.174;11.562;2023-05-07T10:05:30;1.92;;;1.92;;
27802;SDS011;15182;48.174;11.562;2023-05-07T10:08:00;2.13;;;2.13;;
27802;SDS011;15182;48.174;11.562;2023-05-07T10:10:28;2.67;;;2.42;;
27802;SDS011;15182;48.174;11.562;2023-05-07T10:12:57;2.13;;;2.13;;
27802;SDS011;15182;48.174;11.562;2023-05-07T10:15:32;1.85;;;1.85;;
27802;SDS011;15182;48.174;11.562;2023-05-07T10:18:02;1.70;;;1.70;;
27802;SDS011;15182;48.174;11.562;2023-05-07T10:20:32;1.90;;;1.90;;
27802;SDS011;15182;48.174;11.562;2023-05-07T10:23:02;1.95;;;1.95;;
27802;SDS011;15182;48.174;11.562;2023-05-07T10:25:39;1.95;;;1.90;;
27802;SDS011;15182;48.174;11.562;2023-05-07T10:28:14;1.80;;;1.80;;
27802;SDS011;15182;48.174;11.562;2023-05-07T10:30:48;1.67;;;1.67;;
27802;SDS011;15182;48.174;11.562;2023-05-07T10:33:34;2.05;;;1.88;;
27802;SDS011;15182;48.174;11.562;2023-05-07T10:36:08;2.08;;;1.92;;
27802;SDS011;15182;48.174;11.562;2023-05-07T10:38:37;2.17;;;2.08;;
27802;SDS011;15182;48.174;11.562;2023-05-07T10:41:06;1.88;;;1.77;;
27802;SDS011;15182;48.174;11.562;2023-05-07T10:43:39;1.63;;;1.63;;
27802;SDS011;15182;48.174;11.562;2023-05-07T10:46:10;1.60;;;1.60;;
27802;SDS011;15182;48.174;11.562;2023-05-07T10:52:14;1.50;;;1.50;;
27802;SDS011;15182;48.174;11.562;2023-05-07T10:55:19;1.60;;;1.60;;
27802;SDS011;15182;48.174;11.562;2023-05-07T11:00:57;2.17;;;2.08;;
27802;SDS011;15182;48.174;11.562;2023-05-07T11:03:33;1.90;;;1.90;;
27802;SDS011;15182;48.174;11.562;2023-05-07T11:06:10;2.08;;;1.98;;
27802;SDS011;15182;48.174;11.562;2023-05-07T11:09:01;1.90;;;1.90;;
27802;SDS011;15182;48.174;11.562;2023-05-07T11:11:46;5.43;;;2.20;;
27802;SDS011;15182;48.174;11.562;2023-05-07T11:14:44;3.45;;;2.05;;
27802;SDS011;15182;48.174;11.562;2023-05-07T11:17:24;2.22;;;2.13;;
27802;SDS011;15182;48.174;11.562;2023-05-07T11:20:00;2.10;;;2.10;;
27802;SDS011;15182;48.174;11.562;2023-05-07T11:22:47;2.05;;;1.95;;
27802;SDS011;15182;48.174;11.562;2023-05-07T11:25:24;3.42;;;2.35;;
27802;SDS011;15182;48.174;11.562;2023-05-07T11:28:08;2.38;;;2.28;;
27802;SDS011;15182;48.174;11.562;2023-05-07T11:30:41;3.00;;;2.80;;
27802;SDS011;15182;48.174;11.562;2023-05-07T11:33:12;4.32;;;2.50;;
27802;SDS011;15182;48.174;11.562;2023-05-07T11:35:46;2.38;;;2.28;;
27802;SDS011;15182;48.174;11.562;2023-05-07T11:38:16;2.35;;;2.25;;
27802;SDS011;15182;48.174;11.562;2023-05-07T11:40:50;2.42;;;2.42;;
27802;SDS011;15182;48.174;11.562;2023-05-07T11:43:18;2.15;;;2.13;;
27802;SDS011;15182;48.174;11.562;2023-05-07T11:45:46;3.08;;;2.20;;
27802;SDS011;15182;48.174;11.562;2023-05-07T11:48:15;2.42;;;2.42;;
27802;SDS011;15182;48.174;11.562;2023-05-07T11:50:50;2.22;;;2.17;;
27802;SDS011;15182;48.174;11.562;2023-05-07T11:53:18;2.42;;;2.33;;
27802;SDS011;15182;48.174;11.562;2023-05-07T11:55:47;2.38;;;2.28;;
27802;SDS011;15182;48.174;11.562;2023-05-07T11:58:20;2.45;;;2.35;;
27802;SDS011;15182;48.174;11.562;2023-05-07T12:00:50;2.13;;;2.13;;
27802;SDS011;15182;48.174;11.562;2023-05-07T12:03:19;2.13;;;2.03;;
27802;SDS011;15182;48.174;11.562;2023-05-07T12:05:47;1.85;;;1.85;;
27802;SDS011;15182;48.174;11.562;2023-05-07T12:08:15;2.30;;;2.20;;
27802;SDS011;15182;48.174;11.562;2023-05-07T12:10:44;1.98;;;1.98;;
27802;SDS011;15182;48.174;11.562;2023-05-07T12:13:18;2.33;;;2.33;;
27802;SDS011;15182;48.174;11.562;2023-05-07T12:15:48;2.05;;;2.05;;
27802;SDS011;15182;48.174;11.562;2023-05-07T12:18:18;2.03;;;2.03;;
27802;SDS011;15182;48.174;11.562;2023-05-07T12:20:46;1.92;;;1.92;;
27802;SDS011;15182;48.174;11.562;2023-05-07T12:23:15;2.17;;;2.00;;
27802;SDS011;15182;48.174;11.562;2023-05-07T12:25:43;1.75;;;1.75;;
27802;SDS011;15182;48.174;11.562;2023-05-07T12:28:14;2.10;;;2.00;;
27802;SDS011;15182;48.174;11.562;2023-05-07T12:30:44;2.53;;;2.42;;
27802;SDS011;15182;48.174;11.562;2023-05-07T12:33:15;2.05;;;1.95;;
27802;SDS011;15182;48.174;11.562;2023-05-07T12:35:46;2.10;;;2.10;;
27802;SDS011;15182;48.174;11.562;2023-05-07T12:38:16;2.33;;;2.22;;
27802;SDS011;15182;48.174;11.562;2023-05-07T12:40:45;2.33;;;2.30;;
27802;SDS011;15182;48.174;11.562;2023-05-07T12:43:17;2.40;;;2.40;;
27802;SDS011;15182;48.174;11.562;2023-05-07T12:45:48;2.33;;;2.13;;
27802;SDS011;15182;48.174;11.562;2023-05-07T12:48:17;2.20;;;2.20;;
27802;SDS011;15182;48.174;11.562;2023-05-07T12:50:48;2.50;;;2.40;;
27802;SDS011;15182;48.174;11.562;2023-05-07T12:53:16;2.17;;;2.17;;
27802;SDS011;15182;48.174;11.562;2023-05-07T12:55:48;2.10;;;2.00;;
27802;SDS011;15182;48.174;11.562;2023-05-07T12:58:19;2.20;;;2.10;;
27802;SDS011;15182;48.174;11.562;2023-05-07T13:00:49;2.00;;;2.00;;
27802;SDS011;15182;48.174;11.562;2023-05-07T13:03:21;1.90;;;1.90;;
27802;SDS011;15182;48.174;11.562;2023-05-07T13:05:51;1.85;;;1.83;;
27802;SDS011;15182;48.174;11.562;2023-05-07T13:08:26;1.98;;;1.88;;
27802;SDS011;15182;48.174;11.562;2023-05-07T13:10:56;1.77;;;1.77;;
27802;SDS011;15182;48.174;11.562;2023-05-07T13:13:25;1.63;;;1.50;;
27802;SDS011;15182;48.174;11.562;2023-05-07T13:15:54;1.70;;;1.70;;
27802;SDS011;15182;48.174;11.562;2023-05-07T13:18:24;1.65;;;1.65;;
27802;SDS011;15182;48.174;11.562;2023-05-07T13:20:52;1.70;;;1.70;;
27802;SDS011;15182;48.174;11.562;2023-05-07T13:23:20;1.83;;;1.80;;
27802;SDS011;15182;48.174;11.562;2023-05-07T13:25:48;1.70;;;1.70;;
27802;SDS011;15182;48.174;11.562;2023-05-07T13:28:18;1.70;;;1.70;;
27802;SDS011;15182;48.174;11.562;2023-05-07T13:30:46;1.70;;;1.70;;
27802;SDS011;15182;48.174;11.562;2023-05-07T13:33:15;2.47;;;1.83;;
27802;SDS011;15182;48.174;11.562;2023-05-07T13:35:43;1.70;;;1.70;;
27802;SDS011;15182;48.174;11.562;2023-05-07T13:38:11;1.85;;;1.70;;
27802;SDS011;15182;48.174;11.562;2023-05-07T13:40:38;1.80;;;1.80;;
27802;SDS011;15182;48.174;11.562;2023-05-07T13:43:06;1.95;;;1.85;;
27802;SDS011;15182;48.174;11.562;2023-05-07T13:45:34;2.53;;;2.50;;
27802;SDS011;15182;48.174;11.562;2023-05-07T13:48:02;2.10;;;2.10;;
27802;SDS011;15182;48.174;11.562;2023-05-07T13:50:32;1.95;;;1.95;;
27802;SDS011;15182;48.174;11.562;2023-05-07T13:52:59;2.10;;;2.10;;
27802;SDS011;15182;48.174;11.562;2023-05-07T13:55:28;4.68;;;2.28;;
27802;SDS011;15182;48.174;11.562;2023-05-07T13:57:57;2.55;;;2.47;;
27802;SDS011;15182;48.174;11.562;2023-05-07T14:00:26;2.28;;;2.17;;
27802;SDS011;15182;48.174;11.562;2023-05-07T14:02:55;2.28;;;2.28;;
27802;SDS011;15182;48.174;11.562;2023-05-07T14:05:23;2.50;;;2.40;;
27802;SDS011;15182;48.174;11.562;2023-05-07T14:07:53;2.20;;;2.10;;
27802;SDS011;15182;48.174;11.562;2023-05-07T14:10:22;2.10;;;2.10;;
27802;SDS011;15182;48.174;11.562;2023-05-07T14:12:50;2.20;;;2.10;;
27802;SDS011;15182;48.174;11.562;2023-05-07T14:15:18;2.30;;;2.30;;
27802;SDS011;15182;48.174;11.562;2023-05-07T14:17:46;2.50;;;2.50;;
27802;SDS011;15182;48.174;11.562;2023-05-07T14:20:14;2.17;;;2.17;;
27802;SDS011;15182;48.174;11.562;2023-05-07T14:22:41;2.10;;;2.10;;
27802;SDS011;15182;48.174;11.562;2023-05-07T14:25:10;2.40;;;2.40;;
27802;SDS011;15182;48.174;11.562;2023-05-07T14:27:38;2.10;;;2.10;;
27802;SDS011;15182;48.174;11.562;2023-05-07T14:30:06;2.45;;;2.35;;
27802;SDS011;15182;48.174;11.562;2023-05-07T14:32:35;2.33;;;2.33;;
27802;SDS011;15182;48.174;11.562;2023-05-07T14:35:03;2.72;;;2.58;;
27802;SDS011;15182;48.174;11.562;2023-05-07T14:37:31;2.50;;;2.40;;
27802;SDS011;15182;48.174;11.562;2023-05-07T14:39:59;3.03;;;2.50;;
27802;SDS011;15182;48.174;11.562;2023-05-07T14:42:28;2.28;;;2.28;;
27802;SDS011;15182;48.174;11.562;2023-05-07T14:44:56;2.47;;;2.47;;
27802;SDS011;15182;48.174;11.562;2023-05-07T14:47:23;2.28;;;2.22;;
27802;SDS011;15182;48.174;11.562;2023-05-07T14:49:51;7.63;;;2.40;;
27802;SDS011;15182;48.174;11.562;2023-05-07T14:52:20;2.30;;;2.30;;
27802;SDS011;15182;48.174;11.562;2023-05-07T14:54:47;2.25;;;2.25;;
27802;SDS011;15182;48.174;11.562;2023-05-07T14:57:15;2.20;;;2.20;;
27802;SDS011;15182;48.174;11.562;2023-05-07T14:59:45;2.75;;;2.65;;